sensor_id;sensor_type;location;lat;lon;timestamp;temperature;humidity
49222;DHT22;35047;37.588;-122.048;2023-12-20T00:01:54;21.10;90.60
49222;DHT22;35047;37.588;-122.048;2023-12-20T00:04:23;21.00;90.80
49222;DHT22;35047;37.588;-122.048;2023-12-20T00:06:49;21.00;91.00
49222;DHT22;35047;37.588;-122.048;2023-12-20T00:09:15;21.00;91.00
49222;DHT22;35047;37.588;-122.048;2023-12-20T00:11:42;21.00;91.10
49222;DHT22;35047;37.588;-122.048;2023-12-20T00:14:08;21.10;91.30
49222;DHT22;35047;37.588;-122.048;2023-12-20T00:16:34;21.10;90.30
49222;DHT22;35047;37.588;-122.048;2023-12-20T00:19:00;21.00;90.90
49222;DHT22;35047;37.588;-122.048;2023-12-20T00:21:26;21.00;91.20
49222;DHT22;35047;37.588;-122.048;2023-12-20T00:23:52;21.00;91.20
49222;DHT22;35047;37.588;-122.048;2023-12-20T00:26:19;21.00;91.40
49222;DHT22;35047;37.588;-122.048;2023-12-20T00:28:45;21.00;91.20
49222;DHT22;35047;37.588;-122.048;2023-12-20T00:31:11;20.90;91.20
49222;DHT22;35047;37.588;-122.048;2023-12-20T00:33:37;20.80;91.00
49222;DHT22;35047;37.588;-122.048;2023-12-20T00:36:05;20.80;91.00
49222;DHT22;35047;37.588;-122.048;2023-12-20T00:38:31;20.70;91.10
49222;DHT22;35047;37.588;-122.048;2023-12-20T00:40:57;20.80;91.60
49222;DHT22;35047;37.588;-122.048;2023-12-20T00:43:23;20.70;91.10
49222;DHT22;35047;37.588;-122.048;2023-12-20T00:45:49;20.60;91.00
49222;DHT22;35047;37.588;-122.048;2023-12-20T00:48:15;20.50;90.70
49222;DHT22;35047;37.588;-122.048;2023-12-20T00:50:42;20.30;90.80
49222;DHT22;35047;37.588;-122.048;2023-12-20T00:53:08;20.30;91.20
49222;DHT22;35047;37.588;-122.048;2023-12-20T00:55:34;20.30;91.40
49222;DHT22;35047;37.588;-122.048;2023-12-20T00:58:00;20.30;91.50
49222;DHT22;35047;37.588;-122.048;2023-12-20T01:00:26;20.20;91.10
49222;DHT22;35047;37.588;-122.048;2023-12-20T01:02:52;20.30;92.10
49222;DHT22;35047;37.588;-122.048;2023-12-20T01:05:18;20.30;91.60
49222;DHT22;35047;37.588;-122.048;2023-12-20T01:07:45;20.20;90.90
49222;DHT22;35047;37.588;-122.048;2023-12-20T01:10:11;20.20;91.40
49222;DHT22;35047;37.588;-122.048;2023-12-20T01:12:37;20.10;90.50
49222;DHT22;35047;37.588;-122.048;2023-12-20T01:15:03;20.10;91.10
49222;DHT22;35047;37.588;-122.048;2023-12-20T01:17:29;20.10;91.30
49222;DHT22;35047;37.588;-122.048;2023-12-20T01:19:55;20.00;91.30
49222;DHT22;35047;37.588;-122.048;2023-12-20T01:22:21;20.00;91.50
49222;DHT22;35047;37.588;-122.048;2023-12-20T01:24:47;20.10;91.60
49222;DHT22;35047;37.588;-122.048;2023-12-20T01:27:13;20.10;91.70
49222;DHT22;35047;37.588;-122.048;2023-12-20T01:29:39;20.10;91.90
49222;DHT22;35047;37.588;-122.048;2023-12-20T01:32:05;20.20;91.90
49222;DHT22;35047;37.588;-122.048;2023-12-20T01:34:32;20.10;91.60
49222;DHT22;35047;37.588;-122.048;2023-12-20T01:36:58;20.20;91.70
49222;DHT22;35047;37.588;-122.048;2023-12-20T01:39:24;20.10;91.50
49222;DHT22;35047;37.588;-122.048;2023-12-20T01:41:50;20.10;91.50
49222;DHT22;35047;37.588;-122.048;2023-12-20T01:44:16;20.10;91.30
49222;DHT22;35047;37.588;-122.048;2023-12-20T01:46:42;20.10;91.30
49222;DHT22;35047;37.588;-122.048;2023-12-20T01:49:08;20.10;91.10
49222;DHT22;35047;37.588;-122.048;2023-12-20T01:51:34;20.00;90.60
49222;DHT22;35047;37.588;-122.048;2023-12-20T01:54:01;20.00;91.40
49222;DHT22;35047;37.588;-122.048;2023-12-20T01:56:28;20.00;91.10
49222;DHT22;35047;37.588;-122.048;2023-12-20T01:58:54;20.10;91.40
49222;DHT22;35047;37.588;-122.048;2023-12-20T02:01:21;20.10;91.50
49222;DHT22;35047;37.588;-122.048;2023-12-20T02:03:47;20.00;91.70
49222;DHT22;35047;37.588;-122.048;2023-12-20T02:06:14;20.00;91.60
49222;DHT22;35047;37.588;-122.048;2023-12-20T02:08:40;20.00;91.50
49222;DHT22;35047;37.588;-122.048;2023-12-20T02:11:06;19.90;91.70
49222;DHT22;35047;37.588;-122.048;2023-12-20T02:13:33;20.00;91.70
49222;DHT22;35047;37.588;-122.048;2023-12-20T02:15:59;19.90;91.80
49222;DHT22;35047;37.588;-122.048;2023-12-20T02:18:26;20.00;92.00
49222;DHT22;35047;37.588;-122.048;2023-12-20T02:20:52;19.90;91.80
49222;DHT22;35047;37.588;-122.048;2023-12-20T02:23:19;19.90;92.00
49222;DHT22;35047;37.588;-122.048;2023-12-20T02:25:45;20.00;92.20
49222;DHT22;35047;37.588;-122.048;2023-12-20T02:28:11;19.90;92.00
49222;DHT22;35047;37.588;-122.048;2023-12-20T02:30:37;19.90;92.00
49222;DHT22;35047;37.588;-122.048;2023-12-20T02:33:03;19.90;92.20
49222;DHT22;35047;37.588;-122.048;2023-12-20T02:35:31;19.90;92.20
49222;DHT22;35047;37.588;-122.048;2023-12-20T02:37:57;19.80;92.30
49222;DHT22;35047;37.588;-122.048;2023-12-20T02:40:23;19.80;92.40
49222;DHT22;35047;37.588;-122.048;2023-12-20T02:42:49;19.70;92.50
49222;DHT22;35047;37.588;-122.048;2023-12-20T02:45:15;19.70;92.60
49222;DHT22;35047;37.588;-122.048;2023-12-20T02:47:42;19.70;92.70
49222;DHT22;35047;37.588;-122.048;2023-12-20T02:50:08;19.70;92.80
49222;DHT22;35047;37.588;-122.048;2023-12-20T02:52:34;19.60;92.90
49222;DHT22;35047;37.588;-122.048;2023-12-20T02:55:00;19.60;93.00
49222;DHT22;35047;37.588;-122.048;2023-12-20T02:57:26;19.60;93.10
49222;DHT22;35047;37.588;-122.048;2023-12-20T02:59:52;19.60;93.30
49222;DHT22;35047;37.588;-122.048;2023-12-20T03:02:18;19.50;93.40
49222;DHT22;35047;37.588;-122.048;2023-12-20T03:04:44;19.50;93.50
49222;DHT22;35047;37.588;-122.048;2023-12-20T03:07:10;19.60;93.60
49222;DHT22;35047;37.588;-122.048;2023-12-20T03:09:37;19.60;93.70
49222;DHT22;35047;37.588;-122.048;2023-12-20T03:12:03;19.50;93.70
49222;DHT22;35047;37.588;-122.048;2023-12-20T03:14:30;19.50;93.80
49222;DHT22;35047;37.588;-122.048;2023-12-20T03:16:56;19.50;93.90
49222;DHT22;35047;37.588;-122.048;2023-12-20T03:19:22;19.50;93.90
49222;DHT22;35047;37.588;-122.048;2023-12-20T03:21:48;19.50;94.10
49222;DHT22;35047;37.588;-122.048;2023-12-20T03:24:14;19.40;94.00
49222;DHT22;35047;37.588;-122.048;2023-12-20T03:26:40;19.40;94.10
49222;DHT22;35047;37.588;-122.048;2023-12-20T03:29:06;19.40;94.10
49222;DHT22;35047;37.588;-122.048;2023-12-20T03:31:32;19.40;94.10
49222;DHT22;35047;37.588;-122.048;2023-12-20T03:33:58;19.40;94.20
49222;DHT22;35047;37.588;-122.048;2023-12-20T03:36:24;19.40;94.40
49222;DHT22;35047;37.588;-122.048;2023-12-20T03:38:50;19.30;94.60
49222;DHT22;35047;37.588;-122.048;2023-12-20T03:41:16;19.30;94.30
49222;DHT22;35047;37.588;-122.048;2023-12-20T03:43:42;19.40;94.70
49222;DHT22;35047;37.588;-122.048;2023-12-20T03:46:08;19.30;94.40
49222;DHT22;35047;37.588;-122.048;2023-12-20T03:48:37;19.30;94.50
49222;DHT22;35047;37.588;-122.048;2023-12-20T03:51:03;19.30;94.40
49222;DHT22;35047;37.588;-122.048;2023-12-20T03:53:30;19.30;94.50
49222;DHT22;35047;37.588;-122.048;2023-12-20T03:55:56;19.30;94.40
49222;DHT22;35047;37.588;-122.048;2023-12-20T03:58:22;19.30;94.40
49222;DHT22;35047;37.588;-122.048;2023-12-20T04:00:48;19.20;94.50
49222;DHT22;35047;37.588;-122.048;2023-12-20T04:03:14;19.30;94.70
49222;DHT22;35047;37.588;-122.048;2023-12-20T04:05:40;19.40;94.70
49222;DHT22;35047;37.588;-122.048;2023-12-20T04:08:07;19.40;94.50
49222;DHT22;35047;37.588;-122.048;2023-12-20T04:10:33;19.40;94.30
49222;DHT22;35047;37.588;-122.048;2023-12-20T04:12:59;19.40;93.90
49222;DHT22;35047;37.588;-122.048;2023-12-20T04:15:25;19.40;94.10
49222;DHT22;35047;37.588;-122.048;2023-12-20T04:17:51;19.30;93.90
49222;DHT22;35047;37.588;-122.048;2023-12-20T04:20:17;19.30;93.90
49222;DHT22;35047;37.588;-122.048;2023-12-20T04:22:43;19.30;93.80
49222;DHT22;35047;37.588;-122.048;2023-12-20T04:25:09;19.20;93.70
49222;DHT22;35047;37.588;-122.048;2023-12-20T04:27:35;19.10;94.00
49222;DHT22;35047;37.588;-122.048;2023-12-20T04:30:01;19.10;94.00
49222;DHT22;35047;37.588;-122.048;2023-12-20T04:32:28;19.10;94.20
49222;DHT22;35047;37.588;-122.048;2023-12-20T04:34:54;19.20;94.30
49222;DHT22;35047;37.588;-122.048;2023-12-20T04:37:20;19.20;94.40
49222;DHT22;35047;37.588;-122.048;2023-12-20T04:39:46;19.30;94.30
49222;DHT22;35047;37.588;-122.048;2023-12-20T04:42:12;19.30;94.00
49222;DHT22;35047;37.588;-122.048;2023-12-20T04:44:38;19.30;93.90
49222;DHT22;35047;37.588;-122.048;2023-12-20T04:47:04;19.30;93.80
49222;DHT22;35047;37.588;-122.048;2023-12-20T04:49:30;19.30;93.90
49222;DHT22;35047;37.588;-122.048;2023-12-20T04:51:56;19.40;94.00
49222;DHT22;35047;37.588;-122.048;2023-12-20T04:54:22;19.40;93.70
49222;DHT22;35047;37.588;-122.048;2023-12-20T04:56:49;19.30;93.50
49222;DHT22;35047;37.588;-122.048;2023-12-20T04:59:15;19.30;93.60
49222;DHT22;35047;37.588;-122.048;2023-12-20T05:01:41;19.30;93.70
49222;DHT22;35047;37.588;-122.048;2023-12-20T05:04:07;19.30;93.80
49222;DHT22;35047;37.588;-122.048;2023-12-20T05:06:33;19.20;93.70
49222;DHT22;35047;37.588;-122.048;2023-12-20T05:08:59;19.20;93.70
49222;DHT22;35047;37.588;-122.048;2023-12-20T05:11:25;19.20;93.90
49222;DHT22;35047;37.588;-122.048;2023-12-20T05:13:51;19.20;93.80
49222;DHT22;35047;37.588;-122.048;2023-12-20T05:16:17;19.20;93.70
49222;DHT22;35047;37.588;-122.048;2023-12-20T05:18:44;19.10;93.90
49222;DHT22;35047;37.588;-122.048;2023-12-20T05:21:11;19.00;94.00
49222;DHT22;35047;37.588;-122.048;2023-12-20T05:23:37;19.00;94.40
49222;DHT22;35047;37.588;-122.048;2023-12-20T05:26:03;19.10;94.30
49222;DHT22;35047;37.588;-122.048;2023-12-20T05:28:29;19.00;94.10
49222;DHT22;35047;37.588;-122.048;2023-12-20T05:30:55;19.00;94.20
49222;DHT22;35047;37.588;-122.048;2023-12-20T05:33:21;19.00;94.30
49222;DHT22;35047;37.588;-122.048;2023-12-20T05:35:47;18.90;94.20
49222;DHT22;35047;37.588;-122.048;2023-12-20T05:38:13;19.00;94.40
49222;DHT22;35047;37.588;-122.048;2023-12-20T05:40:39;18.90;94.30
49222;DHT22;35047;37.588;-122.048;2023-12-20T05:43:05;19.00;94.40
49222;DHT22;35047;37.588;-122.048;2023-12-20T05:45:31;19.00;94.20
49222;DHT22;35047;37.588;-122.048;2023-12-20T05:47:57;19.00;94.40
49222;DHT22;35047;37.588;-122.048;2023-12-20T05:50:24;18.90;94.10
49222;DHT22;35047;37.588;-122.048;2023-12-20T05:52:50;18.90;94.30
49222;DHT22;35047;37.588;-122.048;2023-12-20T05:55:16;18.80;94.30
49222;DHT22;35047;37.588;-122.048;2023-12-20T05:57:42;18.90;94.60
49222;DHT22;35047;37.588;-122.048;2023-12-20T06:00:09;18.90;94.60
49222;DHT22;35047;37.588;-122.048;2023-12-20T06:02:35;18.90;94.50
49222;DHT22;35047;37.588;-122.048;2023-12-20T06:05:03;18.90;94.50
49222;DHT22;35047;37.588;-122.048;2023-12-20T06:07:30;18.90;94.40
49222;DHT22;35047;37.588;-122.048;2023-12-20T06:09:56;18.90;94.40
49222;DHT22;35047;37.588;-122.048;2023-12-20T06:12:22;18.80;94.70
49222;DHT22;35047;37.588;-122.048;2023-12-20T06:14:48;18.90;94.90
49222;DHT22;35047;37.588;-122.048;2023-12-20T06:17:14;18.80;94.80
49222;DHT22;35047;37.588;-122.048;2023-12-20T06:19:40;18.90;95.00
49222;DHT22;35047;37.588;-122.048;2023-12-20T06:22:08;18.90;94.90
49222;DHT22;35047;37.588;-122.048;2023-12-20T06:24:34;18.90;95.00
49222;DHT22;35047;37.588;-122.048;2023-12-20T06:27:00;18.90;95.00
49222;DHT22;35047;37.588;-122.048;2023-12-20T06:29:26;18.90;95.10
49222;DHT22;35047;37.588;-122.048;2023-12-20T06:31:52;19.00;95.30
49222;DHT22;35047;37.588;-122.048;2023-12-20T06:34:18;19.00;95.30
49222;DHT22;35047;37.588;-122.048;2023-12-20T06:36:44;19.10;95.30
49222;DHT22;35047;37.588;-122.048;2023-12-20T06:39:10;19.00;95.00
49222;DHT22;35047;37.588;-122.048;2023-12-20T06:41:38;19.10;95.10
49222;DHT22;35047;37.588;-122.048;2023-12-20T06:44:04;19.00;94.90
49222;DHT22;35047;37.588;-122.048;2023-12-20T06:46:30;19.10;95.20
49222;DHT22;35047;37.588;-122.048;2023-12-20T06:48:57;19.00;94.90
49222;DHT22;35047;37.588;-122.048;2023-12-20T06:51:23;19.00;94.90
49222;DHT22;35047;37.588;-122.048;2023-12-20T06:53:53;19.00;95.10
49222;DHT22;35047;37.588;-122.048;2023-12-20T06:56:19;19.00;95.10
49222;DHT22;35047;37.588;-122.048;2023-12-20T06:58:46;18.90;95.10
49222;DHT22;35047;37.588;-122.048;2023-12-20T07:01:12;18.90;95.20
49222;DHT22;35047;37.588;-122.048;2023-12-20T07:03:38;18.90;95.20
49222;DHT22;35047;37.588;-122.048;2023-12-20T07:06:05;18.90;95.40
49222;DHT22;35047;37.588;-122.048;2023-12-20T07:08:31;18.90;95.40
49222;DHT22;35047;37.588;-122.048;2023-12-20T07:10:58;18.90;95.40
49222;DHT22;35047;37.588;-122.048;2023-12-20T07:13:24;18.90;95.50
49222;DHT22;35047;37.588;-122.048;2023-12-20T07:15:50;18.80;95.20
49222;DHT22;35047;37.588;-122.048;2023-12-20T07:18:16;18.90;95.30
49222;DHT22;35047;37.588;-122.048;2023-12-20T07:20:42;18.80;95.10
49222;DHT22;35047;37.588;-122.048;2023-12-20T07:23:09;18.90;95.10
49222;DHT22;35047;37.588;-122.048;2023-12-20T07:25:35;18.90;95.00
49222;DHT22;35047;37.588;-122.048;2023-12-20T07:28:01;18.80;94.60
49222;DHT22;35047;37.588;-122.048;2023-12-20T07:30:27;18.80;94.30
49222;DHT22;35047;37.588;-122.048;2023-12-20T07:32:53;18.80;94.40
49222;DHT22;35047;37.588;-122.048;2023-12-20T07:35:20;18.80;94.10
49222;DHT22;35047;37.588;-122.048;2023-12-20T07:37:46;18.70;94.20
49222;DHT22;35047;37.588;-122.048;2023-12-20T07:40:12;18.70;94.00
49222;DHT22;35047;37.588;-122.048;2023-12-20T07:42:39;18.70;94.20
49222;DHT22;35047;37.588;-122.048;2023-12-20T07:45:06;18.70;94.00
49222;DHT22;35047;37.588;-122.048;2023-12-20T07:47:32;18.60;93.70
49222;DHT22;35047;37.588;-122.048;2023-12-20T07:49:58;18.60;93.80
49222;DHT22;35047;37.588;-122.048;2023-12-20T07:52:24;18.60;93.70
49222;DHT22;35047;37.588;-122.048;2023-12-20T07:54:51;18.50;93.70
49222;DHT22;35047;37.588;-122.048;2023-12-20T07:57:17;18.60;93.50
49222;DHT22;35047;37.588;-122.048;2023-12-20T07:59:43;18.60;93.50
49222;DHT22;35047;37.588;-122.048;2023-12-20T08:02:09;18.60;93.20
49222;DHT22;35047;37.588;-122.048;2023-12-20T08:04:35;18.50;93.20
49222;DHT22;35047;37.588;-122.048;2023-12-20T08:07:02;18.60;93.20
49222;DHT22;35047;37.588;-122.048;2023-12-20T08:09:28;18.60;93.10
49222;DHT22;35047;37.588;-122.048;2023-12-20T08:11:54;18.50;92.40
49222;DHT22;35047;37.588;-122.048;2023-12-20T08:14:20;18.60;92.80
49222;DHT22;35047;37.588;-122.048;2023-12-20T08:16:46;18.60;92.50
49222;DHT22;35047;37.588;-122.048;2023-12-20T08:19:12;18.70;92.20
49222;DHT22;35047;37.588;-122.048;2023-12-20T08:21:39;18.60;92.30
49222;DHT22;35047;37.588;-122.048;2023-12-20T08:24:05;18.60;92.30
49222;DHT22;35047;37.588;-122.048;2023-12-20T08:26:32;18.60;91.90
49222;DHT22;35047;37.588;-122.048;2023-12-20T08:28:58;18.50;92.00
49222;DHT22;35047;37.588;-122.048;2023-12-20T08:31:24;18.40;91.90
49222;DHT22;35047;37.588;-122.048;2023-12-20T08:33:51;18.50;92.50
49222;DHT22;35047;37.588;-122.048;2023-12-20T08:36:19;18.50;91.90
49222;DHT22;35047;37.588;-122.048;2023-12-20T08:38:46;18.50;91.80
49222;DHT22;35047;37.588;-122.048;2023-12-20T08:41:13;18.60;92.10
49222;DHT22;35047;37.588;-122.048;2023-12-20T08:43:39;18.70;92.20
49222;DHT22;35047;37.588;-122.048;2023-12-20T08:46:06;18.70;91.10
49222;DHT22;35047;37.588;-122.048;2023-12-20T08:48:32;18.60;91.30
49222;DHT22;35047;37.588;-122.048;2023-12-20T08:50:58;18.50;91.30
49222;DHT22;35047;37.588;-122.048;2023-12-20T08:53:24;18.50;91.10
49222;DHT22;35047;37.588;-122.048;2023-12-20T08:55:50;18.40;91.20
49222;DHT22;35047;37.588;-122.048;2023-12-20T08:58:16;18.40;91.30
49222;DHT22;35047;37.588;-122.048;2023-12-20T09:00:42;18.40;91.40
49222;DHT22;35047;37.588;-122.048;2023-12-20T09:03:09;18.30;91.90
49222;DHT22;35047;37.588;-122.048;2023-12-20T09:05:35;18.40;91.80
49222;DHT22;35047;37.588;-122.048;2023-12-20T09:08:01;18.30;91.60
49222;DHT22;35047;37.588;-122.048;2023-12-20T09:10:27;18.30;91.90
49222;DHT22;35047;37.588;-122.048;2023-12-20T09:12:53;18.40;91.80
49222;DHT22;35047;37.588;-122.048;2023-12-20T09:15:23;18.30;91.80
49222;DHT22;35047;37.588;-122.048;2023-12-20T09:17:49;18.30;92.00
49222;DHT22;35047;37.588;-122.048;2023-12-20T09:20:15;18.30;92.10
49222;DHT22;35047;37.588;-122.048;2023-12-20T09:22:41;18.30;92.10
49222;DHT22;35047;37.588;-122.048;2023-12-20T09:25:08;18.40;92.30
49222;DHT22;35047;37.588;-122.048;2023-12-20T09:27:35;18.50;92.20
49222;DHT22;35047;37.588;-122.048;2023-12-20T09:30:01;18.40;91.90
49222;DHT22;35047;37.588;-122.048;2023-12-20T09:32:28;18.40;92.00
49222;DHT22;35047;37.588;-122.048;2023-12-20T09:34:55;18.30;92.20
49222;DHT22;35047;37.588;-122.048;2023-12-20T09:37:21;18.40;92.20
49222;DHT22;35047;37.588;-122.048;2023-12-20T09:39:47;18.30;92.10
49222;DHT22;35047;37.588;-122.048;2023-12-20T09:42:14;18.30;92.10
49222;DHT22;35047;37.588;-122.048;2023-12-20T09:44:42;18.40;92.50
49222;DHT22;35047;37.588;-122.048;2023-12-20T09:47:09;18.50;92.60
49222;DHT22;35047;37.588;-122.048;2023-12-20T09:49:36;18.50;92.40
49222;DHT22;35047;37.588;-122.048;2023-12-20T09:52:02;18.60;92.40
49222;DHT22;35047;37.588;-122.048;2023-12-20T09:54:30;18.60;92.40
49222;DHT22;35047;37.588;-122.048;2023-12-20T09:56:56;18.60;92.20
49222;DHT22;35047;37.588;-122.048;2023-12-20T09:59:22;18.60;92.40
49222;DHT22;35047;37.588;-122.048;2023-12-20T10:01:49;18.70;92.40
49222;DHT22;35047;37.588;-122.048;2023-12-20T10:04:16;18.70;92.40
49222;DHT22;35047;37.588;-122.048;2023-12-20T10:06:42;18.70;92.10
49222;DHT22;35047;37.588;-122.048;2023-12-20T10:09:09;18.60;92.10
49222;DHT22;35047;37.588;-122.048;2023-12-20T10:11:36;18.60;92.20
49222;DHT22;35047;37.588;-122.048;2023-12-20T10:14:05;18.60;92.30
49222;DHT22;35047;37.588;-122.048;2023-12-20T10:16:32;18.70;92.50
49222;DHT22;35047;37.588;-122.048;2023-12-20T10:18:58;18.60;92.30
49222;DHT22;35047;37.588;-122.048;2023-12-20T10:21:25;18.60;92.40
49222;DHT22;35047;37.588;-122.048;2023-12-20T10:23:54;18.60;92.40
49222;DHT22;35047;37.588;-122.048;2023-12-20T10:26:24;18.60;92.50
49222;DHT22;35047;37.588;-122.048;2023-12-20T10:28:50;18.50;92.60
49222;DHT22;35047;37.588;-122.048;2023-12-20T10:31:31;18.50;92.60
49222;DHT22;35047;37.588;-122.048;2023-12-20T10:33:57;18.60;92.80
49222;DHT22;35047;37.588;-122.048;2023-12-20T10:36:33;18.50;92.60
49222;DHT22;35047;37.588;-122.048;2023-12-20T10:39:00;18.60;92.60
49222;DHT22;35047;37.588;-122.048;2023-12-20T10:41:27;18.50;92.60
49222;DHT22;35047;37.588;-122.048;2023-12-20T10:43:55;18.50;92.80
49222;DHT22;35047;37.588;-122.048;2023-12-20T10:46:22;18.60;92.90
49222;DHT22;35047;37.588;-122.048;2023-12-20T10:48:48;18.60;92.90
49222;DHT22;35047;37.588;-122.048;2023-12-20T10:51:15;18.60;92.80
49222;DHT22;35047;37.588;-122.048;2023-12-20T10:53:43;18.70;93.10
49222;DHT22;35047;37.588;-122.048;2023-12-20T10:56:10;18.70;93.00
49222;DHT22;35047;37.588;-122.048;2023-12-20T10:58:38;18.80;92.90
49222;DHT22;35047;37.588;-122.048;2023-12-20T11:01:08;18.80;92.80
49222;DHT22;35047;37.588;-122.048;2023-12-20T11:03:35;18.80;92.70
49222;DHT22;35047;37.588;-122.048;2023-12-20T11:13:30;18.80;92.50
49222;DHT22;35047;37.588;-122.048;2023-12-20T11:15:57;18.80;92.40
49222;DHT22;35047;37.588;-122.048;2023-12-20T11:18:30;18.80;92.40
49222;DHT22;35047;37.588;-122.048;2023-12-20T11:21:00;18.80;92.30
49222;DHT22;35047;37.588;-122.048;2023-12-20T11:23:26;18.80;92.20
49222;DHT22;35047;37.588;-122.048;2023-12-20T11:25:53;18.80;92.00
49222;DHT22;35047;37.588;-122.048;2023-12-20T11:28:23;18.80;91.90
49222;DHT22;35047;37.588;-122.048;2023-12-20T11:33:16;18.80;91.90
49222;DHT22;35047;37.588;-122.048;2023-12-20T11:35:42;18.80;91.90
49222;DHT22;35047;37.588;-122.048;2023-12-20T11:38:09;18.90;91.90
49222;DHT22;35047;37.588;-122.048;2023-12-20T11:40:35;18.90;91.90
49222;DHT22;35047;37.588;-122.048;2023-12-20T11:43:02;18.90;91.90
49222;DHT22;35047;37.588;-122.048;2023-12-20T11:45:28;19.00;92.00
49222;DHT22;35047;37.588;-122.048;2023-12-20T11:47:56;18.90;91.90
49222;DHT22;35047;37.588;-122.048;2023-12-20T11:50:23;19.00;92.30
49222;DHT22;35047;37.588;-122.048;2023-12-20T11:52:49;19.00;92.40
49222;DHT22;35047;37.588;-122.048;2023-12-20T11:55:16;19.00;92.50
49222;DHT22;35047;37.588;-122.048;2023-12-20T11:57:43;19.00;92.60
49222;DHT22;35047;37.588;-122.048;2023-12-20T12:00:09;19.00;92.50
49222;DHT22;35047;37.588;-122.048;2023-12-20T12:02:35;18.90;92.40
49222;DHT22;35047;37.588;-122.048;2023-12-20T12:05:01;18.80;92.40
49222;DHT22;35047;37.588;-122.048;2023-12-20T12:07:31;18.70;92.50
49222;DHT22;35047;37.588;-122.048;2023-12-20T12:09:57;18.80;92.90
49222;DHT22;35047;37.588;-122.048;2023-12-20T12:12:24;18.80;92.90
49222;DHT22;35047;37.588;-122.048;2023-12-20T12:14:51;18.70;92.50
49222;DHT22;35047;37.588;-122.048;2023-12-20T12:17:17;18.70;92.80
49222;DHT22;35047;37.588;-122.048;2023-12-20T12:19:43;18.70;93.00
49222;DHT22;35047;37.588;-122.048;2023-12-20T12:22:10;18.70;92.60
49222;DHT22;35047;37.588;-122.048;2023-12-20T12:24:39;18.70;92.90
49222;DHT22;35047;37.588;-122.048;2023-12-20T12:27:08;18.70;92.90
49222;DHT22;35047;37.588;-122.048;2023-12-20T12:29:35;18.80;92.80
49222;DHT22;35047;37.588;-122.048;2023-12-20T12:32:01;18.80;92.80
49222;DHT22;35047;37.588;-122.048;2023-12-20T12:34:30;18.80;92.80
49222;DHT22;35047;37.588;-122.048;2023-12-20T12:36:56;18.90;92.80
49222;DHT22;35047;37.588;-122.048;2023-12-20T12:39:25;19.00;93.00
49222;DHT22;35047;37.588;-122.048;2023-12-20T12:41:51;19.00;93.00
49222;DHT22;35047;37.588;-122.048;2023-12-20T12:44:17;19.10;93.10
49222;DHT22;35047;37.588;-122.048;2023-12-20T12:46:46;19.20;93.10
49222;DHT22;35047;37.588;-122.048;2023-12-20T12:49:15;19.20;92.80
49222;DHT22;35047;37.588;-122.048;2023-12-20T12:51:41;19.20;92.70
49222;DHT22;35047;37.588;-122.048;2023-12-20T12:54:07;19.20;93.40
49222;DHT22;35047;37.588;-122.048;2023-12-20T12:56:34;19.20;93.20
49222;DHT22;35047;37.588;-122.048;2023-12-20T12:59:00;19.30;93.20
49222;DHT22;35047;37.588;-122.048;2023-12-20T13:01:26;19.30;93.30
49222;DHT22;35047;37.588;-122.048;2023-12-20T13:03:52;19.30;93.10
49222;DHT22;35047;37.588;-122.048;2023-12-20T13:06:18;19.30;93.20
49222;DHT22;35047;37.588;-122.048;2023-12-20T13:08:44;19.20;93.20
49222;DHT22;35047;37.588;-122.048;2023-12-20T13:11:10;19.30;93.10
49222;DHT22;35047;37.588;-122.048;2023-12-20T13:13:36;19.20;93.00
49222;DHT22;35047;37.588;-122.048;2023-12-20T13:16:03;19.30;93.20
49222;DHT22;35047;37.588;-122.048;2023-12-20T13:18:29;19.20;93.40
49222;DHT22;35047;37.588;-122.048;2023-12-20T13:20:55;19.20;93.40
49222;DHT22;35047;37.588;-122.048;2023-12-20T13:23:21;19.20;93.70
49222;DHT22;35047;37.588;-122.048;2023-12-20T13:25:48;19.30;93.80
49222;DHT22;35047;37.588;-122.048;2023-12-20T13:28:14;19.30;93.90
49222;DHT22;35047;37.588;-122.048;2023-12-20T13:30:40;19.20;93.80
49222;DHT22;35047;37.588;-122.048;2023-12-20T13:33:09;19.20;93.90
49222;DHT22;35047;37.588;-122.048;2023-12-20T13:35:35;19.10;93.60
49222;DHT22;35047;37.588;-122.048;2023-12-20T13:38:01;19.00;94.00
49222;DHT22;35047;37.588;-122.048;2023-12-20T13:40:27;19.00;94.10
49222;DHT22;35047;37.588;-122.048;2023-12-20T13:42:54;19.00;94.30
49222;DHT22;35047;37.588;-122.048;2023-12-20T13:45:20;18.90;94.10
49222;DHT22;35047;37.588;-122.048;2023-12-20T13:47:46;18.90;93.70
49222;DHT22;35047;37.588;-122.048;2023-12-20T13:50:12;18.90;92.60
49222;DHT22;35047;37.588;-122.048;2023-12-20T13:52:39;18.80;92.90
49222;DHT22;35047;37.588;-122.048;2023-12-20T13:55:05;18.90;93.30
49222;DHT22;35047;37.588;-122.048;2023-12-20T13:57:33;18.90;93.40
49222;DHT22;35047;37.588;-122.048;2023-12-20T13:59:59;18.70;91.90
49222;DHT22;35047;37.588;-122.048;2023-12-20T14:02:25;18.60;91.90
49222;DHT22;35047;37.588;-122.048;2023-12-20T14:04:52;18.40;91.80
49222;DHT22;35047;37.588;-122.048;2023-12-20T14:07:18;18.40;92.30
49222;DHT22;35047;37.588;-122.048;2023-12-20T14:09:44;18.40;92.60
49222;DHT22;35047;37.588;-122.048;2023-12-20T14:12:11;18.30;92.30
49222;DHT22;35047;37.588;-122.048;2023-12-20T14:14:37;18.10;91.20
49222;DHT22;35047;37.588;-122.048;2023-12-20T14:17:03;17.70;91.80
49222;DHT22;35047;37.588;-122.048;2023-12-20T14:19:32;17.60;92.60
49222;DHT22;35047;37.588;-122.048;2023-12-20T14:21:58;17.60;92.70
49222;DHT22;35047;37.588;-122.048;2023-12-20T14:24:27;17.70;93.30
49222;DHT22;35047;37.588;-122.048;2023-12-20T14:26:53;17.60;93.50
49222;DHT22;35047;37.588;-122.048;2023-12-20T14:29:19;17.70;93.40
49222;DHT22;35047;37.588;-122.048;2023-12-20T14:31:45;17.50;92.60
49222;DHT22;35047;37.588;-122.048;2023-12-20T14:34:11;17.60;92.50
49222;DHT22;35047;37.588;-122.048;2023-12-20T14:36:37;17.60;92.70
49222;DHT22;35047;37.588;-122.048;2023-12-20T14:39:04;17.70;93.80
49222;DHT22;35047;37.588;-122.048;2023-12-20T14:41:31;17.70;94.00
49222;DHT22;35047;37.588;-122.048;2023-12-20T14:43:57;17.80;94.40
49222;DHT22;35047;37.588;-122.048;2023-12-20T14:46:25;17.90;94.60
49222;DHT22;35047;37.588;-122.048;2023-12-20T14:48:51;17.90;94.40
49222;DHT22;35047;37.588;-122.048;2023-12-20T14:51:18;17.80;94.30
49222;DHT22;35047;37.588;-122.048;2023-12-20T14:53:44;17.70;94.70